Time;durP1;ratioP1;P1;durP2;ratioP2;P2;SDS_P1;SDS_P2;PMS_P1;PMS_P2;Temp;Humidity;BMP_temperature;BMP_pressure;BME280_temperature;BME280_humidity;BME280_pressure;Samples;Min_cycle;Max_cycle;Signal;HPM_P1;HPM_P2
2023/06/16 00:01:34;;;;;;;12.80;7.10;;;;;;;20.18;66.32;99169.36;107453;1254;70442;-40
2023/06/16 00:04:03;;;;;;;12.00;7.30;;;;;;;20.11;66.41;99174.85;107526;1254;60376;-40
2023/06/16 00:06:31;;;;;;;14.40;7.70;;;;;;;20.05;66.48;99173.89;107436;1254;60405;-40
2023/06/16 00:09:00;;;;;;;11.90;7.90;;;;;;;20.04;66.06;99175.03;107479;1253;74003;-39
2023/06/16 00:11:28;;;;;;;10.70;7.80;;;;;;;20.03;66.12;99171.20;107503;1254;67927;-39
2023/06/16 00:13:56;;;;;;;15.20;8.00;;;;;;;19.99;66.40;99169.38;107496;1254;71435;-39
2023/06/16 00:16:23;;;;;;;11.60;9.00;;;;;;;19.96;66.48;99173.46;107561;1254;60434;-39
2023/06/16 00:18:52;;;;;;;11.60;7.60;;;;;;;19.92;66.27;99172.46;107476;1253;59866;-40
2023/06/16 00:21:27;;;;;;;12.20;8.00;;;;;;;19.87;66.38;99172.33;107563;1253;73850;-40
2023/06/16 00:23:55;;;;;;;15.40;9.00;;;;;;;19.81;66.49;99165.77;107446;1253;66775;-40
2023/06/16 00:26:23;;;;;;;11.20;7.70;;;;;;;19.74;66.40;99166.16;107412;1253;72265;-39
2023/06/16 00:28:51;;;;;;;15.50;7.30;;;;;;;19.72;66.41;99160.85;107457;1254;61663;-39
2023/06/16 00:31:19;;;;;;;10.30;7.90;;;;;;;19.73;66.57;99156.14;107376;1253;60029;-40
2023/06/16 00:33:46;;;;;;;17.40;8.30;;;;;;;19.71;66.83;99155.48;107419;1254;72537;-40
2023/06/16 00:36:15;;;;;;;15.00;8.40;;;;;;;19.67;66.97;99152.02;107442;1253;67592;-40
2023/06/16 00:38:43;;;;;;;12.10;7.80;;;;;;;19.62;66.89;99154.01;107374;1253;73012;-39
2023/06/16 00:41:11;;;;;;;11.10;8.40;;;;;;;19.57;67.11;99153.70;107413;1256;60093;-40
2023/06/16 00:43:39;;;;;;;12.30;8.40;;;;;;;19.50;67.31;99147.72;107276;1259;60409;-39
2023/06/16 00:46:08;;;;;;;13.20;7.70;;;;;;;19.46;67.70;99148.90;107331;1259;73917;-39
2023/06/16 00:48:36;;;;;;;14.80;7.80;;;;;;;19.45;68.00;99148.15;107255;1254;67955;-39
2023/06/16 00:51:04;;;;;;;11.70;8.00;;;;;;;19.41;68.30;99144.34;107307;1253;72664;-40
2023/06/16 00:53:32;;;;;;;12.40;8.40;;;;;;;19.38;68.15;99146.98;107277;1259;60534;-39
2023/06/16 00:56:00;;;;;;;11.60;7.90;;;;;;;19.36;68.12;99148.47;107198;1253;60610;-39
2023/06/16 00:58:28;;;;;;;11.80;8.50;;;;;;;19.34;67.92;99149.91;107445;1253;73862;-39
2023/06/16 01:00:56;;;;;;;13.50;8.20;;;;;;;19.32;67.75;99147.19;107371;1253;67712;-39
2023/06/16 01:03:23;;;;;;;11.50;7.70;;;;;;;19.33;67.51;99145.45;107392;1257;72668;-39
2023/06/16 01:05:56;;;;;;;11.50;8.70;;;;;;;19.34;67.23;99146.84;107356;1257;60777;-39
2023/06/16 01:08:51;;;;;;;14.10;8.20;;;;;;;19.32;67.47;99145.95;107488;1253;60133;-39
2023/06/16 01:11:29;;;;;;;10.70;8.30;;;;;;;19.30;67.55;99145.52;107373;1253;73876;-39
2023/06/16 01:14:18;;;;;;;11.50;8.50;;;;;;;19.26;67.41;99143.25;107396;1253;67647;-40
2023/06/16 01:16:46;;;;;;;12.10;8.80;;;;;;;19.23;67.29;99141.48;107432;1254;71469;-39
2023/06/16 01:19:43;;;;;;;13.80;9.20;;;;;;;19.18;67.45;99140.01;107273;1253;61719;-40
2023/06/16 01:22:38;;;;;;;15.60;8.80;;;;;;;19.19;67.44;99141.88;107171;1253;60341;-39
2023/06/16 01:25:07;;;;;;;13.90;8.60;;;;;;;19.20;67.71;99135.42;107234;1253;73877;-39
2023/06/16 01:27:38;;;;;;;14.70;9.40;;;;;;;19.16;68.02;99141.08;107240;1260;65295;-39
2023/06/16 01:30:06;;;;;;;11.80;9.00;;;;;;;19.13;68.10;99138.14;107211;1256;71404;-39
2023/06/16 01:32:34;;;;;;;17.10;9.40;;;;;;;19.11;68.23;99139.52;107414;1253;59610;-40
2023/06/16 01:35:02;;;;;;;10.40;8.20;;;;;;;19.07;68.23;99137.46;107262;1253;59666;-40
2023/06/16 01:37:30;;;;;;;11.10;8.30;;;;;;;19.03;68.30;99135.18;107385;1253;72619;-39
2023/06/16 01:39:58;;;;;;;14.50;8.60;;;;;;;19.02;68.02;99131.52;107404;1259;67601;-39
2023/06/16 01:42:25;;;;;;;12.30;8.70;;;;;;;19.04;68.17;99132.36;107321;1253;72666;-39
2023/06/16 01:44:53;;;;;;;14.30;8.30;;;;;;;19.03;68.24;99131.27;107391;1257;60326;-39
2023/06/16 01:47:22;;;;;;;11.60;8.90;;;;;;;19.01;68.31;99133.05;107293;1253;59659;-39
2023/06/16 01:49:50;;;;;;;13.10;9.50;;;;;;;19.00;68.46;99130.63;107137;1262;73893;-39
2023/06/16 01:52:18;;;;;;;12.00;9.40;;;;;;;18.98;68.55;99129.02;107296;1253;66644;-40
2023/06/16 01:54:45;;;;;;;15.20;9.10;;;;;;;18.94;68.46;99126.33;107412;1257;72674;-39
2023/06/16 01:57:13;;;;;;;15.70;8.80;;;;;;;18.94;68.25;99126.74;107394;1254;61720;-39
2023/06/16 01:59:41;;;;;;;11.60;8.20;;;;;;;18.96;68.21;99127.02;107294;1253;60310;-40
2023/06/16 02:02:13;;;;;;;12.00;7.90;;;;;;;18.95;68.29;99126.72;107407;1258;72544;-39
2023/06/16 02:04:44;;;;;;;13.10;8.30;;;;;;;18.93;68.38;99126.60;107408;1253;66406;-39
2023/06/16 02:07:14;;;;;;;14.60;8.70;;;;;;;18.90;68.31;99126.73;107390;1253;72731;-40
2023/06/16 02:09:45;;;;;;;11.30;8.40;;;;;;;18.87;68.27;99128.84;107433;1254;59575;-39
2023/06/16 02:12:13;;;;;;;11.60;8.20;;;;;;;18.83;68.59;99127.48;107288;1254;60475;-39
2023/06/16 02:14:40;;;;;;;12.10;7.60;;;;;;;18.82;68.84;99126.64;107279;1253;72664;-40
2023/06/16 02:17:09;;;;;;;16.50;8.50;;;;;;;18.84;68.89;99127.31;107417;1253;67892;-39
2023/06/16 02:19:38;;;;;;;12.90;8.20;;;;;;;18.84;68.75;99127.77;107312;1254;72858;-39
2023/06/16 02:22:06;;;;;;;14.70;8.60;;;;;;;18.82;68.68;99127.29;107448;1253;60268;-39
2023/06/16 02:24:33;;;;;;;11.60;8.50;;;;;;;18.80;68.50;99126.21;107432;1253;60339;-39
2023/06/16 02:27:03;;;;;;;12.70;8.90;;;;;;;18.78;68.29;99123.51;107474;1253;74228;-39
2023/06/16 02:29:31;;;;;;;16.50;9.70;;;;;;;18.76;68.29;99126.21;107409;1259;66594;-40
2023/06/16 02:31:59;;;;;;;15.80;9.00;;;;;;;18.72;68.43;99126.05;107379;1259;72730;-39
2023/06/16 02:34:26;;;;;;;14.10;8.50;;;;;;;18.72;68.48;99130.75;107390;1259;61054;-39
2023/06/16 02:36:54;;;;;;;13.50;9.10;;;;;;;18.74;68.52;99128.29;107378;1253;60280;-39
2023/06/16 02:39:22;;;;;;;13.50;9.00;;;;;;;18.79;68.42;99133.61;107393;1253;73897;-39
2023/06/16 02:41:50;;;;;;;13.70;9.30;;;;;;;18.81;68.67;99128.39;107342;1253;68044;-40
2023/06/16 02:44:18;;;;;;;17.10;10.30;;;;;;;18.83;68.90;99126.62;107473;1253;71386;-39
2023/06/16 02:46:46;;;;;;;13.90;9.70;;;;;;;18.84;68.51;99128.80;107385;1254;60486;-39
2023/06/16 02:49:16;;;;;;;13.10;9.20;;;;;;;18.85;68.38;99127.15;107448;1254;60265;-40
2023/06/16 02:51:44;;;;;;;19.20;10.50;;;;;;;18.88;68.15;99127.09;107459;1253;72885;-39
2023/06/16 02:54:12;;;;;;;13.80;9.80;;;;;;;18.94;68.05;99124.86;107521;1254;66300;-39
2023/06/16 02:56:40;;;;;;;16.50;9.90;;;;;;;18.98;68.04;99125.95;107353;1259;72720;-41
2023/06/16 02:59:10;;;;;;;15.70;10.00;;;;;;;19.02;68.07;99124.77;107328;1259;60405;-39
2023/06/16 03:01:38;;;;;;;16.20;10.40;;;;;;;19.07;68.22;99123.66;107349;1254;60745;-39
2023/06/16 03:04:17;;;;;;;18.10;11.30;;;;;;;19.12;68.20;99125.92;107328;1254;73811;-39
2023/06/16 03:06:58;;;;;;;16.90;10.50;;;;;;;19.15;68.05;99122.89;107340;1258;66642;-39
2023/06/16 03:09:33;;;;;;;24.20;11.50;;;;;;;19.21;67.78;99123.14;107364;1254;72749;-39
2023/06/16 03:12:04;;;;;;;20.30;11.10;;;;;;;19.28;67.70;99123.72;107326;1254;60514;-42
2023/06/16 03:14:33;;;;;;;18.00;11.50;;;;;;;19.32;67.43;99123.02;107383;1257;59689;-40
2023/06/16 03:17:10;;;;;;;22.50;11.80;;;;;;;19.36;67.23;99123.71;107226;1253;71612;-40
2023/06/16 03:19:38;;;;;;;19.80;11.70;;;;;;;19.38;67.02;99126.90;107415;1254;67575;-40
2023/06/16 03:22:06;;;;;;;17.80;12.20;;;;;;;19.41;66.99;99125.02;107194;1257;72910;-40
2023/06/16 03:24:41;;;;;;;19.20;12.00;;;;;;;19.44;67.11;99129.15;107412;1254;60513;-40
2023/06/16 03:27:11;;;;;;;15.80;11.60;;;;;;;19.49;67.09;99123.70;107400;1254;60454;-40
2023/06/16 03:30:02;;;;;;;22.40;12.10;;;;;;;19.60;66.98;99132.60;107429;1254;76053;-40
2023/06/16 03:32:48;;;;;;;22.20;12.10;;;;;;;19.66;67.00;99129.79;107563;1253;66622;-41
2023/06/16 03:35:34;;;;;;;21.50;11.60;;;;;;;19.74;66.87;99136.30;107368;1254;74312;-41
2023/06/16 03:38:04;;;;;;;19.90;12.70;;;;;;;19.80;66.84;99137.27;107427;1254;60453;-40
2023/06/16 03:40:32;;;;;;;19.80;13.00;;;;;;;19.85;66.80;99135.42;107361;1254;60805;-40
2023/06/16 03:43:02;;;;;;;18.60;12.10;;;;;;;19.90;66.71;99142.23;107367;1254;73918;-40
2023/06/16 03:45:31;;;;;;;20.30;11.80;;;;;;;19.98;66.73;99139.23;107308;1253;66609;-40
2023/06/16 03:47:59;;;;;;;18.20;12.00;;;;;;;20.09;66.76;99141.63;107394;1259;74729;-39
2023/06/16 03:50:30;;;;;;;20.80;11.50;;;;;;;20.18;66.77;99136.16;107343;1258;62167;-39
2023/06/16 03:52:58;;;;;;;17.40;11.80;;;;;;;20.22;66.48;99134.95;107436;1259;61046;-39
2023/06/16 03:55:33;;;;;;;19.40;11.90;;;;;;;20.28;66.39;99132.23;107327;1251;74168;-39
2023/06/16 03:58:02;;;;;;;18.50;12.00;;;;;;;20.34;66.05;99132.42;107376;1254;66619;-40
2023/06/16 04:00:30;;;;;;;17.40;11.70;;;;;;;20.39;66.16;99135.38;107664;1257;72644;-39
2023/06/16 04:02:58;;;;;;;16.70;11.60;;;;;;;20.46;66.12;99138.73;107519;1254;60438;-39
2023/06/16 04:05:31;;;;;;;17.80;11.70;;;;;;;20.57;65.73;99136.05;107525;1258;59648;-43
2023/06/16 04:07:59;;;;;;;21.30;12.30;;;;;;;20.62;65.51;99139.52;107423;1252;73193;-40
2023/06/16 04:10:27;;;;;;;18.50;11.50;;;;;;;20.69;65.69;99140.36;107490;1258;67624;-40
2023/06/16 04:12:55;;;;;;;20.10;11.30;;;;;;;20.76;65.70;99144.34;107613;1254;71377;-40
2023/06/16 04:15:22;;;;;;;19.40;11.40;;;;;;;20.81;65.39;99142.95;107585;1254;60411;-40
2023/06/16 04:17:50;;;;;;;18.60;11.20;;;;;;;20.86;65.34;99143.94;107610;1254;60310;-40
2023/06/16 04:20:19;;;;;;;15.00;10.30;;;;;;;20.95;65.50;99143.01;107488;1254;72603;-40
2023/06/16 04:22:47;;;;;;;15.50;10.60;;;;;;;21.04;65.27;99143.69;107688;1251;66292;-40
2023/06/16 04:25:17;;;;;;;15.20;10.20;;;;;;;21.12;65.31;99145.94;107472;1253;72641;-42
2023/06/16 04:28:01;;;;;;;20.50;10.90;;;;;;;21.19;65.06;99145.05;107297;1260;60331;-39
2023/06/16 04:30:33;;;;;;;16.70;10.00;;;;;;;21.24;64.81;99143.33;107443;1254;59222;-40
2023/06/16 04:33:02;;;;;;;19.20;10.30;;;;;;;21.30;64.56;99140.48;108096;1251;73828;-40
2023/06/16 04:35:31;;;;;;;18.40;10.40;;;;;;;21.39;64.38;99146.55;107589;1251;66610;-39
2023/06/16 04:38:01;;;;;;;13.80;9.60;;;;;;;21.45;64.57;99147.00;107253;1253;71148;-40
2023/06/16 04:40:32;;;;;;;14.00;9.80;;;;;;;21.53;64.27;99144.56;107503;1254;61665;-39
2023/06/16 04:42:59;;;;;;;14.30;9.70;;;;;;;21.63;64.08;99143.15;107512;1254;60246;-41
2023/06/16 04:45:28;;;;;;;14.50;9.00;;;;;;;21.71;64.36;99152.92;107560;1251;72558;-41
2023/06/16 04:47:56;;;;;;;11.90;8.40;;;;;;;21.79;64.01;99150.48;107574;1251;66639;-41
2023/06/16 04:50:24;;;;;;;14.80;9.50;;;;;;;21.87;63.62;99150.08;107585;1251;71406;-41
2023/06/16 04:52:51;;;;;;;17.00;9.10;;;;;;;21.94;63.50;99148.07;107420;1259;60487;-40
2023/06/16 04:55:20;;;;;;;16.50;10.30;;;;;;;22.01;63.36;99153.31;107423;1252;59700;-41
2023/06/16 04:57:48;;;;;;;13.90;8.90;;;;;;;22.07;63.36;99154.06;107363;1254;73857;-41
2023/06/16 05:00:16;;;;;;;12.40;7.70;;;;;;;22.17;62.26;99159.61;107397;1258;67873;-40
2023/06/16 05:02:44;;;;;;;14.00;8.10;;;;;;;22.25;61.69;99158.95;107491;1251;72793;-41
2023/06/16 05:05:12;;;;;;;12.60;7.30;;;;;;;22.31;61.61;99157.72;107620;1251;60647;-40
2023/06/16 05:07:40;;;;;;;13.90;8.30;;;;;;;22.39;61.24;99159.00;107543;1251;60344;-41
2023/06/16 05:10:08;;;;;;;11.20;7.70;;;;;;;22.44;60.75;99159.13;107493;1251;73875;-41
2023/06/16 05:12:36;;;;;;;10.30;6.60;;;;;;;22.48;60.49;99162.39;108248;1251;67624;-38
2023/06/16 05:15:05;;;;;;;12.50;7.20;;;;;;;22.51;59.92;99163.25;107574;1251;72028;-38
2023/06/16 05:17:33;;;;;;;13.50;6.70;;;;;;;22.53;59.76;99157.90;107591;1251;60244;-39
2023/06/16 05:20:01;;;;;;;11.20;7.40;;;;;;;22.55;60.01;99162.58;107499;1252;60693;-39
2023/06/16 05:22:29;;;;;;;10.00;7.00;;;;;;;22.56;60.82;99161.98;107310;1251;72575;-39
2023/06/16 05:24:57;;;;;;;13.40;6.60;;;;;;;22.57;61.10;99159.11;107584;1254;66291;-40
2023/06/16 05:27:25;;;;;;;13.10;6.50;;;;;;;22.62;61.12;99159.42;107361;1255;71858;-40
2023/06/16 05:29:54;;;;;;;12.20;6.60;;;;;;;22.68;60.81;99156.52;107539;1257;60431;-40
2023/06/16 05:32:27;;;;;;;11.60;6.30;;;;;;;22.73;60.86;99158.98;107638;1252;59579;-40
2023/06/16 05:34:55;;;;;;;14.50;7.20;;;;;;;22.79;60.93;99157.76;107489;1253;72982;-39
2023/06/16 05:37:23;;;;;;;11.30;6.10;;;;;;;22.86;60.07;99158.52;107611;1254;66664;-40
2023/06/16 05:39:51;;;;;;;10.60;6.40;;;;;;;22.93;59.48;99155.77;107619;1254;72662;-40
2023/06/16 05:42:19;;;;;;;13.00;6.70;;;;;;;23.01;59.09;99160.16;107644;1254;60402;-40
2023/06/16 05:44:48;;;;;;;13.60;6.10;;;;;;;23.10;58.23;99161.98;107551;1251;59593;-40
2023/06/16 05:47:28;;;;;;;13.20;6.30;;;;;;;23.18;57.57;99156.16;107681;1251;73850;-41
2023/06/16 05:49:59;;;;;;;11.80;5.80;;;;;;;23.27;57.81;99150.69;107473;1254;68363;-40
2023/06/16 05:52:27;;;;;;;12.30;5.70;;;;;;;23.35;57.31;99156.59;107542;1253;72678;-40
2023/06/16 05:54:55;;;;;;;8.90;5.10;;;;;;;23.42;56.73;99153.64;107378;1251;59439;-40
2023/06/16 05:57:29;;;;;;;11.20;6.10;;;;;;;23.51;56.40;99157.61;107417;1251;60427;-39
2023/06/16 05:59:57;;;;;;;8.60;5.40;;;;;;;23.58;56.07;99156.61;107497;1251;73897;-40
2023/06/16 06:02:25;;;;;;;13.50;5.80;;;;;;;23.65;55.66;99156.28;107266;1251;67832;-40
2023/06/16 06:04:54;;;;;;;10.90;5.30;;;;;;;23.71;56.13;99155.58;107474;1256;73137;-40
2023/06/16 06:07:21;;;;;;;10.10;4.60;;;;;;;23.78;56.35;99152.14;107517;1254;60412;-40
2023/06/16 06:09:49;;;;;;;10.90;5.60;;;;;;;23.87;55.69;99149.05;107574;1254;60144;-40
2023/06/16 06:12:17;;;;;;;13.70;5.40;;;;;;;23.95;54.82;99146.43;107389;1254;73837;-40
2023/06/16 06:14:45;;;;;;;9.80;4.80;;;;;;;24.03;54.64;99146.30;107422;1253;66765;-40
2023/06/16 06:17:13;;;;;;;8.60;5.00;;;;;;;24.10;54.35;99145.35;107386;1255;73178;-40
2023/06/16 06:19:40;;;;;;;11.80;5.10;;;;;;;24.17;54.47;99146.70;107358;1254;60542;-40
2023/06/16 06:22:08;;;;;;;9.10;5.10;;;;;;;24.24;54.22;99143.56;107378;1254;60421;-40
2023/06/16 06:24:37;;;;;;;7.40;4.60;;;;;;;24.32;53.64;99140.92;107583;1253;73884;-40
2023/06/16 06:27:05;;;;;;;11.80;5.00;;;;;;;24.41;53.68;99148.51;107639;1254;66291;-40
2023/06/16 06:29:33;;;;;;;8.20;4.80;;;;;;;24.48;52.71;99145.35;107508;1256;72715;-40
2023/06/16 06:32:01;;;;;;;9.40;4.40;;;;;;;24.55;52.23;99148.42;107697;1255;60480;-40
2023/06/16 06:34:28;;;;;;;8.90;4.40;;;;;;;24.61;51.24;99149.17;107458;1251;60370;-40
2023/06/16 06:36:56;;;;;;;11.00;4.60;;;;;;;24.71;50.71;99149.02;107643;1251;73856;-40
2023/06/16 06:39:23;;;;;;;7.90;4.60;;;;;;;24.76;50.12;99145.70;107410;1254;67570;-40
2023/06/16 06:41:51;;;;;;;8.80;4.30;;;;;;;24.85;49.64;99142.89;107649;1257;71429;-40
2023/06/16 06:44:22;;;;;;;9.30;4.50;;;;;;;24.93;48.90;99143.80;107465;1251;60481;-40
2023/06/16 06:46:50;;;;;;;9.30;4.20;;;;;;;25.01;48.47;99139.98;107631;1259;60312;-40
2023/06/16 06:49:19;;;;;;;7.00;3.90;;;;;;;25.08;48.78;99137.06;107533;1251;73856;-40
2023/06/16 06:51:46;;;;;;;9.60;5.00;;;;;;;25.16;48.55;99139.95;107467;1257;67577;-40
2023/06/16 06:54:14;;;;;;;9.80;4.70;;;;;;;25.23;48.51;99140.04;107577;1257;71437;-40
2023/06/16 06:56:41;;;;;;;9.00;4.60;;;;;;;25.33;48.90;99138.19;107390;1259;60399;-41
2023/06/16 06:59:09;;;;;;;9.40;4.90;;;;;;;25.40;48.55;99135.64;107292;1254;61019;-41
2023/06/16 07:01:37;;;;;;;8.80;4.50;;;;;;;25.43;47.98;99131.38;107358;1254;72629;-39
2023/06/16 07:04:06;;;;;;;7.80;4.30;;;;;;;25.44;47.65;99129.29;107466;1254;67618;-39
2023/06/16 07:06:35;;;;;;;7.70;4.70;;;;;;;25.45;47.40;99130.27;107162;1260;204264;-40
2023/06/16 07:10:06;;;;;;;8.50;5.00;;;;;;;25.54;47.79;99128.77;104307;1289;600364;-39
2023/06/16 07:12:34;;;;;;;12.20;5.10;;;;;;;25.60;47.89;99127.33;106576;1267;60113;-40
2023/06/16 07:15:02;;;;;;;9.70;5.20;;;;;;;25.68;47.81;99123.20;106874;1260;60121;-40
2023/06/16 07:17:31;;;;;;;7.60;4.10;;;;;;;25.78;46.93;99123.30;106942;1260;71540;-40
2023/06/16 07:20:00;;;;;;;9.30;4.60;;;;;;;25.90;46.69;99122.11;106921;1260;68018;-40
2023/06/16 07:22:28;;;;;;;11.20;4.80;;;;;;;26.01;46.15;99122.93;106979;1260;71449;-40
2023/06/16 07:24:55;;;;;;;9.00;4.40;;;;;;;26.12;46.19;99124.95;107060;1257;209064;-40
2023/06/16 07:27:23;;;;;;;10.50;4.80;;;;;;;26.22;46.10;99127.64;107125;1257;60074;-40
2023/06/16 07:29:51;;;;;;;9.30;4.30;;;;;;;26.32;46.29;99124.10;106925;1257;72307;-40
2023/06/16 07:32:18;;;;;;;16.40;5.10;;;;;;;26.45;46.15;99123.00;107085;1257;67122;-41
2023/06/16 07:34:46;;;;;;;11.10;4.40;;;;;;;26.58;45.52;99124.19;107089;1258;72702;-40
2023/06/16 07:37:14;;;;;;;9.20;4.40;;;;;;;26.68;44.88;99119.30;106995;1257;60050;-40
2023/06/16 07:39:42;;;;;;;11.00;4.50;;;;;;;26.81;43.75;99119.40;107157;1257;60033;-40
2023/06/16 07:42:09;;;;;;;9.10;4.80;;;;;;;26.91;43.40;99125.34;107087;1257;73025;-40
2023/06/16 07:44:37;;;;;;;15.10;5.70;;;;;;;27.00;42.82;99121.52;107018;1257;68027;-39
2023/06/16 07:47:05;;;;;;;12.40;4.80;;;;;;;27.12;42.13;99122.71;106986;1257;71895;-39
2023/06/16 07:49:36;;;;;;;17.50;5.30;;;;;;;27.26;41.86;99119.98;106970;1259;60146;-39
2023/06/16 07:52:04;;;;;;;11.20;5.10;;;;;;;27.41;41.41;99123.44;107022;1257;59509;-39
2023/06/16 07:54:31;;;;;;;10.00;4.40;;;;;;;27.52;41.77;99124.52;107027;1262;73029;-39
2023/06/16 07:56:59;;;;;;;12.90;4.80;;;;;;;27.62;40.44;99126.88;107120;1262;66278;-39
2023/06/16 07:59:27;;;;;;;12.40;4.00;;;;;;;27.64;39.57;99126.50;107080;1257;71424;-39
2023/06/16 08:01:54;;;;;;;11.30;4.10;;;;;;;27.67;40.72;99123.06;107039;1260;59528;-39
2023/06/16 08:04:24;;;;;;;9.00;4.30;;;;;;;27.78;39.89;99117.66;107140;1257;59480;-39
2023/06/16 08:06:53;;;;;;;14.40;4.70;;;;;;;27.88;39.76;99117.91;106994;1258;73492;-39
2023/06/16 08:09:20;;;;;;;11.30;5.00;;;;;;;27.92;40.06;99117.59;107141;1257;68349;-40
2023/06/16 08:11:48;;;;;;;9.00;4.10;;;;;;;27.94;39.83;99115.09;107091;1260;71583;-39
2023/06/16 08:14:16;;;;;;;11.70;4.50;;;;;;;27.97;39.71;99121.05;107109;1262;60143;-40
2023/06/16 08:16:43;;;;;;;5.30;3.60;;;;;;;28.01;39.11;99120.46;107197;1258;60040;-40
2023/06/16 08:19:11;;;;;;;8.30;4.00;;;;;;;28.00;39.31;99119.29;107034;1257;73062;-40
2023/06/16 08:21:42;;;;;;;10.40;4.00;;;;;;;28.01;38.53;99116.25;107015;1257;66429;-39
2023/06/16 08:24:10;;;;;;;8.80;4.50;;;;;;;27.98;38.73;99114.08;107101;1257;71483;-40
2023/06/16 08:26:38;;;;;;;8.40;4.30;;;;;;;28.00;39.23;99112.34;106973;1257;60055;-39
2023/06/16 08:29:10;;;;;;;6.50;3.90;;;;;;;28.10;39.29;99110.88;107060;1257;60061;-40
2023/06/16 08:31:38;;;;;;;6.90;4.10;;;;;;;28.22;38.70;99113.20;107035;1256;71824;-40
2023/06/16 08:34:05;;;;;;;10.30;4.30;;;;;;;28.31;38.20;99112.30;107013;1257;66790;-40
2023/06/16 08:36:33;;;;;;;11.00;4.20;;;;;;;28.35;38.47;99112.81;107033;1257;71358;-40
2023/06/16 08:39:01;;;;;;;7.50;4.30;;;;;;;28.40;38.12;99108.78;107006;1257;60274;-40
2023/06/16 08:41:29;;;;;;;14.80;4.50;;;;;;;28.48;38.78;99106.86;107042;1260;59302;-41
2023/06/16 08:43:57;;;;;;;9.30;4.70;;;;;;;28.60;38.84;99109.48;107074;1258;72812;-40
2023/06/16 08:46:25;;;;;;;10.20;4.40;;;;;;;28.72;37.69;99109.92;107067;1257;66304;-41
2023/06/16 08:48:52;;;;;;;9.40;4.30;;;;;;;28.77;37.58;99107.16;107012;1257;71789;-40
2023/06/16 08:51:21;;;;;;;7.30;4.10;;;;;;;28.84;37.57;99103.13;106860;1266;60266;-40
2023/06/16 08:53:49;;;;;;;12.60;4.20;;;;;;;28.90;37.11;99100.15;107109;1256;60055;-40
2023/06/16 08:56:17;;;;;;;9.30;4.90;;;;;;;29.00;37.15;99103.55;106975;1257;73138;-40
2023/06/16 08:58:46;;;;;;;7.60;3.80;;;;;;;29.08;37.01;99104.34;107019;1257;67754;-41
2023/06/16 09:01:17;;;;;;;9.50;4.20;;;;;;;29.14;37.16;99104.25;107066;1260;72832;-41
2023/06/16 09:03:48;;;;;;;10.40;4.10;;;;;;;29.19;37.01;99099.69;107019;1257;59688;-41
2023/06/16 09:06:16;;;;;;;8.70;4.40;;;;;;;29.22;36.41;99102.98;107032;1257;59996;-40
2023/06/16 09:08:44;;;;;;;5.60;4.10;;;;;;;29.25;37.14;99108.44;107055;1257;71869;-41
2023/06/16 09:11:12;;;;;;;8.50;4.00;;;;;;;29.32;37.46;99103.34;107085;1257;67606;-42
2023/06/16 09:13:43;;;;;;;12.40;4.10;;;;;;;29.40;36.93;99103.63;106997;1259;71516;-41
2023/06/16 09:16:15;;;;;;;7.00;4.20;;;;;;;29.36;36.42;99102.58;107026;1257;60141;-42
2023/06/16 09:18:44;;;;;;;6.00;4.30;;;;;;;29.23;36.83;99105.57;106932;1257;60136;-42
2023/06/16 09:21:13;;;;;;;9.60;4.10;;;;;;;29.16;37.60;99107.20;106963;1258;71781;-41
2023/06/16 09:23:42;;;;;;;8.60;3.80;;;;;;;29.16;37.70;99101.05;106919;1257;69539;-40
2023/06/16 09:26:13;;;;;;;8.20;3.80;;;;;;;29.25;37.88;99098.02;107036;1257;71455;-40
2023/06/16 09:28:44;;;;;;;10.40;4.10;;;;;;;29.37;36.89;99096.80;107031;1260;59614;-41
2023/06/16 09:31:12;;;;;;;4.70;3.60;;;;;;;29.51;36.30;99094.94;107072;1258;59460;-41
2023/06/16 09:33:41;;;;;;;5.70;3.50;;;;;;;29.60;35.71;99086.69;106990;1262;73047;-40
2023/06/16 09:36:09;;;;;;;6.00;3.90;;;;;;;29.68;35.96;99084.06;107098;1257;67871;-40
2023/06/16 09:38:37;;;;;;;9.30;3.80;;;;;;;29.80;36.24;99085.67;107103;1258;72739;-40
2023/06/16 09:41:10;;;;;;;8.50;3.60;;;;;;;29.92;35.11;99086.28;106968;1257;60056;-41
2023/06/16 09:43:38;;;;;;;7.00;3.70;;;;;;;30.02;34.48;99083.00;106901;1257;59298;-41
2023/06/16 09:46:10;;;;;;;6.20;3.80;;;;;;;30.04;34.15;99077.94;107060;1257;72327;-41
2023/06/16 09:48:48;;;;;;;9.20;3.80;;;;;;;30.00;34.40;99078.32;107158;1257;67710;-41
2023/06/16 09:51:25;;;;;;;9.20;3.70;;;;;;;30.01;34.26;99073.95;107072;1260;71710;-41
2023/06/16 09:53:53;;;;;;;9.10;3.80;;;;;;;30.07;33.59;99070.23;107096;1262;60069;-41
2023/06/16 09:56:20;;;;;;;5.60;3.80;;;;;;;30.12;33.69;99070.52;107218;1254;60807;-40
2023/06/16 09:58:48;;;;;;;5.10;3.60;;;;;;;30.10;34.47;99068.38;107341;1254;73508;-41
2023/06/16 10:01:16;;;;;;;7.70;3.90;;;;;;;30.14;33.77;99069.29;107382;1254;65875;-41
2023/06/16 10:03:46;;;;;;;5.30;3.70;;;;;;;30.21;33.32;99073.56;107490;1253;72661;-41
2023/06/16 10:06:19;;;;;;;7.30;3.70;;;;;;;30.30;33.22;99071.42;107382;1254;60262;-41
2023/06/16 10:08:48;;;;;;;6.40;3.50;;;;;;;30.39;33.52;99068.92;107401;1254;60048;-41
2023/06/16 10:11:16;;;;;;;6.60;3.90;;;;;;;30.45;33.32;99071.55;107405;1253;73216;-41
2023/06/16 10:13:54;;;;;;;5.90;3.40;;;;;;;30.46;32.74;99069.08;107273;1253;66604;-40
2023/06/16 10:16:25;;;;;;;6.10;3.30;;;;;;;30.52;32.68;99064.18;107277;1254;71803;-41
2023/06/16 10:18:53;;;;;;;9.20;3.60;;;;;;;30.68;32.54;99063.88;108096;1255;59646;-39
2023/06/16 10:21:22;;;;;;;7.00;3.60;;;;;;;30.83;32.36;99063.11;107204;1253;59454;-40
2023/06/16 10:23:51;;;;;;;7.90;3.60;;;;;;;30.94;32.73;99057.38;107348;1253;73031;-40
2023/06/16 10:26:19;;;;;;;7.00;3.50;;;;;;;31.11;32.72;99056.42;107203;1256;67637;-40
2023/06/16 10:28:47;;;;;;;6.10;3.60;;;;;;;31.28;32.35;99051.60;107241;1253;72566;-40
2023/06/16 10:31:16;;;;;;;4.60;3.80;;;;;;;31.44;31.92;99046.46;107154;1253;60041;-41
2023/06/16 10:33:55;;;;;;;7.90;3.80;;;;;;;31.53;31.94;99044.88;107184;1253;59423;-40
2023/06/16 10:36:24;;;;;;;8.00;3.90;;;;;;;31.47;30.71;99042.19;107373;1253;73050;-41
2023/06/16 10:39:01;;;;;;;9.20;4.00;;;;;;;31.39;31.18;99039.54;107408;1255;67213;-40
2023/06/16 10:41:29;;;;;;;5.70;3.40;;;;;;;31.45;31.49;99039.80;107233;1257;72701;-40
2023/06/16 10:44:26;;;;;;;5.90;3.70;;;;;;;31.60;31.74;99035.77;107179;1255;60083;-40
2023/06/16 10:47:09;;;;;;;7.20;3.60;;;;;;;31.78;31.11;99034.44;107285;1257;59532;-40
2023/06/16 10:49:50;;;;;;;5.80;3.30;;;;;;;31.93;31.02;99030.73;107101;1256;73538;-40
2023/06/16 10:52:18;;;;;;;7.00;3.50;;;;;;;32.01;31.07;99026.80;107284;1255;66617;-40
2023/06/16 10:54:51;;;;;;;6.20;3.90;;;;;;;32.10;31.03;99021.79;107261;1257;72736;-40
2023/06/16 10:57:19;;;;;;;5.50;3.60;;;;;;;32.11;30.86;99020.26;107416;1254;60046;-40
2023/06/16 11:00:23;;;;;;;6.70;3.50;;;;;;;32.06;30.80;99021.06;107406;1255;60029;-40
2023/06/16 11:02:53;;;;;;;6.40;3.20;;;;;;;31.87;31.15;99016.73;107439;1253;71648;-40
2023/06/16 11:05:22;;;;;;;5.40;3.40;;;;;;;31.71;31.58;99021.82;107414;1259;67917;-40
2023/06/16 11:08:14;;;;;;;11.30;4.50;;;;;;;31.66;31.46;99018.14;107271;1254;72727;-40
2023/06/16 11:10:53;;;;;;;6.40;3.90;;;;;;;31.77;31.27;99011.87;107408;1254;59706;-40
2023/06/16 11:13:25;;;;;;;15.70;6.40;;;;;;;31.97;31.23;99013.05;107347;1258;60184;-40
2023/06/16 11:15:54;;;;;;;8.10;3.50;;;;;;;32.18;30.77;99010.04;107390;1254;71469;-40
2023/06/16 11:18:26;;;;;;;7.90;3.70;;;;;;;32.34;30.49;99005.90;107374;1254;68544;-41
2023/06/16 11:20:56;;;;;;;6.30;3.40;;;;;;;32.39;30.41;99005.67;107416;1254;72761;-43
2023/06/16 11:23:25;;;;;;;6.30;3.20;;;;;;;32.38;30.32;99007.40;106952;1254;60458;-41
2023/06/16 11:26:14;;;;;;;10.00;3.40;;;;;;;32.29;30.17;99005.10;107369;1259;60199;-40
2023/06/16 11:28:43;;;;;;;8.10;3.30;;;;;;;32.27;30.18;99008.58;107334;1253;72752;-40
2023/06/16 11:31:11;;;;;;;6.90;3.40;;;;;;;32.43;30.27;99004.13;107328;1255;68054;-40
2023/06/16 11:33:40;;;;;;;6.20;3.50;;;;;;;32.69;29.62;99004.77;107397;1254;72655;-40